Time;durP1;ratioP1;P1;durP2;ratioP2;P2;SDS_P1;SDS_P2;PMS_P1;PMS_P2;Temp;Humidity;BMP_temperature;BMP_pressure;BME280_temperature;BME280_humidity;BME280_pressure;Samples;Min_cycle;Max_cycle;Signal;HPM_P1;HPM_P2
2023/08/27 00:00:57;;;;;;;;;1.00;1.00;;;;;20.12;100.00;100795.03;5054824;28;45352;-71
2023/08/27 00:03:23;;;;;;;;;1.00;1.00;;;;;20.09;100.00;100795.13;5054710;28;45335;-73
2023/08/27 00:05:48;;;;;;;;;2.00;1.00;;;;;20.07;100.00;100788.91;5058398;28;46181;-71
2023/08/27 00:08:14;;;;;;;;;0.33;0.33;;;;;20.08;100.00;100790.66;5059830;28;45769;-71
2023/08/27 00:10:39;;;;;;;;;1.00;1.00;;;;;20.07;100.00;100795.16;5043490;28;45390;-71
2023/08/27 00:13:04;;;;;;;;;1.00;1.00;;;;;20.06;100.00;100790.72;5064732;28;45317;-71
2023/08/27 00:15:30;;;;;;;;;0.00;0.00;;;;;20.00;100.00;100781.97;5061895;28;45332;-72
2023/08/27 00:17:55;;;;;;;;;1.00;1.00;;;;;20.01;100.00;100783.72;5064507;28;46726;-72
2023/08/27 00:20:21;;;;;;;;;1.00;1.00;;;;;19.96;100.00;100786.53;5043934;28;45459;-73
2023/08/27 00:22:46;;;;;;;;;1.00;1.00;;;;;19.94;100.00;100783.03;5031872;28;45224;-72
2023/08/27 00:25:12;;;;;;;;;1.00;1.00;;;;;19.93;100.00;100792.00;5065630;28;45261;-71
2023/08/27 00:27:37;;;;;;;;;2.00;2.00;;;;;19.89;100.00;100783.16;5062777;28;46475;-71
2023/08/27 00:30:04;;;;;;;;;1.00;1.00;;;;;19.85;100.00;100794.88;5064019;28;45254;-72
2023/08/27 00:32:33;;;;;;;;;2.00;2.00;;;;;19.82;100.00;100786.94;5061973;28;45295;-72
2023/08/27 00:34:59;;;;;;;;;2.00;2.00;;;;;19.84;100.00;100789.56;5043250;28;45408;-73
2023/08/27 00:37:25;;;;;;;;;1.67;1.67;;;;;19.80;100.00;100790.56;5059745;28;46891;-72
2023/08/27 00:39:50;;;;;;;;;2.00;1.00;;;;;19.76;100.00;100773.72;5067591;28;45289;-72
2023/08/27 00:42:15;;;;;;;;;1.33;1.33;;;;;19.76;100.00;100789.78;5060116;28;46128;-72
2023/08/27 00:44:41;;;;;;;;;4.00;2.67;;;;;19.69;100.00;100788.19;5066955;28;45459;-71
2023/08/27 00:47:06;;;;;;;;;1.33;1.33;;;;;19.69;100.00;100793.53;5058978;28;61476;-72
2023/08/27 00:49:32;;;;;;;;;3.00;2.00;;;;;19.64;100.00;100782.06;5060211;28;49519;-71
2023/08/27 00:51:58;;;;;;;;;2.00;2.00;;;;;19.65;100.00;100781.16;5059224;28;45563;-71
2023/08/27 00:54:24;;;;;;;;;2.00;2.00;;;;;19.62;100.00;100781.25;5046554;28;45221;-71
2023/08/27 00:56:50;;;;;;;;;4.33;1.67;;;;;19.59;100.00;100775.97;5040476;28;49728;-72
2023/08/27 00:59:16;;;;;;;;;1.67;1.67;;;;;19.56;100.00;100786.75;5040086;28;45341;-71
2023/08/27 01:01:42;;;;;;;;;1.00;1.00;;;;;19.51;100.00;100781.50;5040474;28;45483;-71
2023/08/27 01:04:08;;;;;;;;;0.33;0.33;;;;;19.48;100.00;100780.69;5059620;28;45470;-73
2023/08/27 01:06:33;;;;;;;;;2.00;2.00;;;;;19.44;100.00;100784.38;5063612;28;46454;-73
2023/08/27 01:09:25;;;;;;;;;1.00;1.00;;;;;19.42;100.00;100787.09;5064189;28;57445;-72
2023/08/27 01:12:09;;;;;;;;;1.00;1.00;;;;;19.41;100.00;100782.66;5052959;28;45285;-72
2023/08/27 01:14:36;;;;;;;;;1.00;1.00;;;;;19.41;100.00;100779.97;5067058;28;45320;-71
2023/08/27 01:17:03;;;;;;;;;1.00;1.00;;;;;19.37;100.00;100776.50;5062199;28;46115;-71
2023/08/27 01:19:29;;;;;;;;;2.33;1.00;;;;;19.29;100.00;100777.63;5066063;28;45405;-72
2023/08/27 01:21:54;;;;;;;;;2.00;2.00;;;;;19.25;100.00;100776.81;5062518;28;45484;-73
2023/08/27 01:24:20;;;;;;;;;2.00;2.00;;;;;19.24;100.00;100776.88;5064734;28;53488;-72
2023/08/27 01:26:47;;;;;;;;;1.00;1.00;;;;;19.21;100.00;100777.81;5061241;28;45726;-72
2023/08/27 01:29:25;;;;;;;;;1.33;1.00;;;;;19.22;100.00;100778.69;5043101;28;45451;-73
2023/08/27 01:32:09;;;;;;;;;3.67;1.00;;;;;19.22;100.00;100784.91;5060396;28;45412;-71
2023/08/27 01:34:35;;;;;;;;;1.33;1.33;;;;;19.20;100.00;100767.16;5059782;28;45681;-71
2023/08/27 01:37:03;;;;;;;;;1.00;1.00;;;;;19.17;100.00;100768.09;5058594;28;46572;-73
2023/08/27 01:39:29;;;;;;;;;1.00;1.00;;;;;19.18;100.00;100767.22;5063827;28;45277;-73
2023/08/27 01:41:54;;;;;;;;;1.00;1.00;;;;;19.15;100.00;100758.34;5060786;28;45463;-74
2023/08/27 01:44:19;;;;;;;;;3.00;1.00;;;;;19.14;100.00;100765.50;5063878;28;45490;-71
2023/08/27 01:46:45;;;;;;;;;1.00;1.00;;;;;19.13;100.00;100763.75;5059809;28;50948;-72
2023/08/27 01:49:10;;;;;;;;;3.33;2.00;;;;;19.11;100.00;100768.25;5062028;28;50288;-72
2023/08/27 01:51:35;;;;;;;;;1.00;1.00;;;;;19.10;100.00;100771.84;5066120;28;63846;-73
2023/08/27 01:54:01;;;;;;;;;1.00;1.00;;;;;19.07;100.00;100778.19;5061361;28;45502;-71
2023/08/27 01:56:26;;;;;;;;;1.00;1.00;;;;;19.03;100.00;100780.97;5059278;28;46202;-71
2023/08/27 01:58:52;;;;;;;;;3.00;1.67;;;;;19.03;100.00;100773.81;5039661;28;64709;-72
2023/08/27 02:01:17;;;;;;;;;0.33;0.33;;;;;19.02;100.00;100780.09;5057374;28;60652;-72
2023/08/27 02:03:43;;;;;;;;;0.33;0.33;;;;;19.03;100.00;100780.97;5059162;28;45295;-72
2023/08/27 02:06:08;;;;;;;;;1.00;1.00;;;;;18.99;100.00;100784.63;5060347;28;46410;-71
2023/08/27 02:08:33;;;;;;;;;0.00;0.00;;;;;18.97;100.00;100782.00;5058820;28;63443;-71
2023/08/27 02:10:59;;;;;;;;;2.00;2.00;;;;;18.96;100.00;100784.69;5061056;28;45521;-73
2023/08/27 02:13:24;;;;;;;;;3.00;2.00;;;;;18.93;100.00;100791.00;5056882;28;45576;-71
2023/08/27 02:15:49;;;;;;;;;2.00;2.00;;;;;18.90;100.00;100791.06;5056985;28;46429;-71
2023/08/27 02:18:15;;;;;;;;;2.33;1.33;;;;;18.89;100.00;100797.34;5060178;28;64595;-71
2023/08/27 02:20:43;;;;;;;;;2.00;2.00;;;;;18.88;100.00;100794.72;5057477;28;45470;-71
2023/08/27 02:23:08;;;;;;;;;2.67;2.67;;;;;18.88;100.00;100794.72;5063948;28;45668;-71
2023/08/27 02:25:34;;;;;;;;;1.33;1.33;;;;;18.91;100.00;100792.84;5060596;28;63874;-73
2023/08/27 02:27:59;;;;;;;;;1.00;1.00;;;;;18.88;100.00;100792.91;5059716;28;62114;-72
2023/08/27 02:30:24;;;;;;;;;4.33;1.67;;;;;18.86;100.00;100780.50;5059019;28;45477;-74
2023/08/27 02:32:50;;;;;;;;;2.00;1.00;;;;;18.82;100.00;100788.59;5057488;28;45614;-74
2023/08/27 02:35:15;;;;;;;;;3.00;1.00;;;;;18.80;100.00;100787.75;5038462;28;67052;-73
2023/08/27 02:37:40;;;;;;;;;2.00;1.00;;;;;18.74;100.00;100784.31;5056861;28;63305;-73
2023/08/27 02:40:06;;;;;;;;;3.33;1.00;;;;;18.74;100.00;100784.31;5063621;28;58415;-71
2023/08/27 02:42:31;;;;;;;;;0.00;0.00;;;;;18.69;100.00;100776.41;5041932;28;45543;-72
2023/08/27 02:44:57;;;;;;;;;1.00;1.00;;;;;18.70;100.00;100774.63;5060776;28;66679;-71
2023/08/27 02:47:22;;;;;;;;;1.00;1.00;;;;;18.65;100.00;100774.69;5068374;28;45546;-74
2023/08/27 02:49:49;;;;;;;;;1.00;1.00;;;;;18.66;100.00;100772.91;5055705;28;45357;-71
2023/08/27 02:52:15;;;;;;;;;1.00;1.00;;;;;18.55;100.00;100774.03;5065283;28;45364;-71
2023/08/27 02:54:40;;;;;;;;;1.67;0.67;;;;;18.54;100.00;100776.75;5058880;28;46272;-71
2023/08/27 02:57:05;;;;;;;;;3.00;1.00;;;;;18.53;100.00;100783.84;5062694;28;63374;-73
2023/08/27 02:59:31;;;;;;;;;1.00;1.00;;;;;18.41;100.00;100773.44;5058604;28;45343;-71
2023/08/27 03:01:56;;;;;;;;;1.33;1.00;;;;;18.35;100.00;100780.72;5058178;28;58937;-73
2023/08/27 03:04:21;;;;;;;;;2.00;1.00;;;;;18.32;100.00;100787.91;5060959;28;45785;-71
2023/08/27 03:06:47;;;;;;;;;1.00;1.00;;;;;18.29;100.00;100792.44;5057948;28;64689;-71
2023/08/27 03:09:12;;;;;;;;;1.67;1.00;;;;;18.26;100.00;100788.03;5037461;28;63610;-71
2023/08/27 03:11:37;;;;;;;;;1.00;1.00;;;;;18.26;100.00;100780.00;5060583;28;60058;-71
2023/08/27 03:14:03;;;;;;;;;3.67;1.00;;;;;18.25;100.00;100790.72;5056193;28;68275;-71
2023/08/27 03:16:28;;;;;;;;;0.67;0.67;;;;;18.23;100.00;100787.22;5037644;28;67089;-71
2023/08/27 03:18:54;;;;;;;;;1.00;1.00;;;;;18.22;100.00;100786.34;5058763;28;45348;-72
2023/08/27 03:21:21;;;;;;;;;3.00;0.00;;;;;18.23;100.00;100792.56;5058649;28;45646;-72
2023/08/27 03:23:46;;;;;;;;;2.00;1.67;;;;;18.22;100.00;100791.69;5038126;28;46006;-71
2023/08/27 03:26:12;;;;;;;;;3.67;1.00;;;;;18.20;100.00;100788.16;5038315;28;45399;-71
2023/08/27 03:28:37;;;;;;;;;1.00;1.00;;;;;18.18;100.00;100786.44;5055926;28;45453;-71
2023/08/27 03:31:03;;;;;;;;;2.00;1.00;;;;;18.18;100.00;100787.31;5058566;28;45284;-71
2023/08/27 03:33:31;;;;;;;;;1.00;1.00;;;;;18.18;100.00;100787.31;5058311;28;45500;-73
2023/08/27 03:35:57;;;;;;;;;1.33;1.33;;;;;18.20;100.00;100790.81;5058483;28;45313;-71
2023/08/27 03:38:23;;;;;;;;;0.67;0.67;;;;;18.21;100.00;100792.59;5037405;28;45382;-72
2023/08/27 03:40:50;;;;;;;;;1.00;1.00;;;;;18.21;100.00;100789.03;5063480;28;45423;-71
2023/08/27 03:43:16;;;;;;;;;4.00;1.00;;;;;18.21;100.00;100794.38;5059410;28;46878;-73
2023/08/27 03:45:41;;;;;;;;;1.00;1.00;;;;;18.20;100.00;100795.28;5063304;28;45253;-72
2023/08/27 03:48:07;;;;;;;;;1.00;1.00;;;;;18.22;100.00;100804.19;5057733;28;45476;-74
2023/08/27 03:50:32;;;;;;;;;2.00;2.00;;;;;18.22;100.00;100812.19;5056080;28;45601;-71
2023/08/27 03:52:58;;;;;;;;;1.00;1.00;;;;;18.20;100.00;100808.66;5037538;28;62823;-71
2023/08/27 03:55:23;;;;;;;;;2.67;1.00;;;;;18.22;100.00;100815.75;5061093;28;56623;-71
2023/08/27 03:57:50;;;;;;;;;2.00;2.00;;;;;18.24;100.00;100805.91;5037892;28;46083;-71
2023/08/27 04:00:15;;;;;;;;;0.67;0.67;;;;;18.25;100.00;100817.47;5058322;28;52079;-71
2023/08/27 04:02:42;;;;;;;;;3.00;2.00;;;;;18.23;100.00;100808.59;5055630;28;46106;-71
2023/08/27 04:05:07;;;;;;;;;2.00;2.00;;;;;18.21;100.00;100816.63;5059763;28;45354;-71
2023/08/27 04:07:33;;;;;;;;;1.00;1.00;;;;;18.21;100.00;100810.41;5056136;28;45360;-74
2023/08/27 04:09:58;;;;;;;;;0.67;0.67;;;;;18.20;100.00;100816.69;5059222;28;45518;-72
2023/08/27 04:12:24;;;;;;;;;1.33;1.33;;;;;18.16;100.00;100821.19;5055941;28;59488;-71
2023/08/27 04:14:49;;;;;;;;;1.00;1.00;;;;;18.16;100.00;100820.31;5058580;28;45465;-71
2023/08/27 04:17:14;;;;;;;;;0.00;0.00;;;;;18.12;100.00;100827.53;5059798;28;45765;-74
2023/08/27 04:19:40;;;;;;;;;1.00;1.00;;;;;18.12;100.00;100826.66;5057592;28;51102;-72
2023/08/27 04:22:05;;;;;;;;;1.00;1.00;;;;;18.15;100.00;100823.91;5053792;28;51219;-72
2023/08/27 04:24:30;;;;;;;;;2.00;1.00;;;;;18.11;100.00;100817.75;5055289;28;62686;-71
2023/08/27 04:26:58;;;;;;;;;0.67;0.67;;;;;18.08;100.00;100814.25;5056029;28;45452;-72
2023/08/27 04:29:23;;;;;;;;;3.00;1.33;;;;;18.04;100.00;100824.13;5060019;28;45196;-71
2023/08/27 04:31:49;;;;;;;;;1.00;1.00;;;;;18.00;100.00;100807.28;5038705;28;46432;-72
2023/08/27 04:34:14;;;;;;;;;0.00;0.00;;;;;18.02;100.00;100821.50;5036737;28;60920;-71
2023/08/27 04:36:39;;;;;;;;;1.00;1.00;;;;;18.03;100.00;100827.72;5059017;28;61514;-71
2023/08/27 04:39:07;;;;;;;;;2.00;0.67;;;;;18.01;100.00;100833.09;5037145;28;60979;-71
2023/08/27 04:41:33;;;;;;;;;0.67;0.67;;;;;17.98;100.00;100826.91;5056396;28;47154;-72
2023/08/27 04:43:58;;;;;;;;;1.00;1.00;;;;;18.01;100.00;100837.56;5037998;28;45340;-73
2023/08/27 04:46:24;;;;;;;;;3.00;1.00;;;;;18.00;100.00;100838.44;5036686;28;45527;-71
2023/08/27 04:48:49;;;;;;;;;1.00;1.00;;;;;17.97;100.00;100838.53;5054844;28;60569;-72
2023/08/27 04:51:16;;;;;;;;;1.00;1.00;;;;;17.93;100.00;100843.03;5060509;28;65510;-72
2023/08/27 04:53:41;;;;;;;;;1.00;1.00;;;;;17.84;100.00;100848.53;5058531;28;45572;-72
2023/08/27 04:56:06;;;;;;;;;1.00;1.00;;;;;17.85;100.00;100838.75;5063872;28;45395;-72
2023/08/27 04:58:32;;;;;;;;;1.00;1.00;;;;;17.81;100.00;100851.28;5060204;28;61751;-72
2023/08/27 05:00:57;;;;;;;;;0.67;0.67;;;;;17.79;100.00;100848.66;5058688;28;46172;-73
2023/08/27 05:03:23;;;;;;;;;0.00;0.00;;;;;17.80;100.00;100846.84;5059554;28;63574;-74
2023/08/27 05:05:52;;;;;;;;;1.33;1.00;;;;;17.78;100.00;100844.19;5062873;28;45411;-72
2023/08/27 05:08:17;;;;;;;;;1.00;1.00;;;;;17.82;100.00;100850.38;5041201;28;45360;-72
2023/08/27 05:10:42;;;;;;;;;1.00;1.00;;;;;17.79;100.00;100853.13;5059774;28;70135;-73
2023/08/27 05:13:08;;;;;;;;;1.00;1.00;;;;;17.81;100.00;100848.63;5058952;28;63016;-72
2023/08/27 05:15:33;;;;;;;;;3.00;1.67;;;;;17.77;100.00;100846.91;5061506;28;60355;-72
2023/08/27 05:17:58;;;;;;;;;3.00;1.00;;;;;17.76;100.00;100853.16;5049113;28;50607;-72
2023/08/27 05:20:24;;;;;;;;;2.00;2.00;;;;;17.72;100.00;100849.66;5061040;28;63879;-74
2023/08/27 05:22:49;;;;;;;;;2.33;2.00;;;;;17.75;100.00;100852.28;5064645;28;52191;-72
2023/08/27 05:25:14;;;;;;;;;1.00;1.00;;;;;17.75;100.00;100854.06;5058212;28;51502;-72
2023/08/27 05:27:44;;;;;;;;;1.00;1.00;;;;;17.78;100.00;100851.31;5060201;28;45409;-72
2023/08/27 05:30:12;;;;;;;;;2.00;2.00;;;;;17.81;100.00;100853.97;5059505;28;45993;-72
2023/08/27 05:32:37;;;;;;;;;1.00;1.00;;;;;17.82;100.00;100852.16;5040651;28;45454;-72
2023/08/27 05:35:02;;;;;;;;;1.00;1.00;;;;;17.77;100.00;100853.13;5044998;28;62029;-72
2023/08/27 05:37:28;;;;;;;;;3.00;1.67;;;;;17.76;100.00;100864.72;5058597;28;45304;-75
2023/08/27 05:39:53;;;;;;;;;2.33;1.67;;;;;17.79;100.00;100862.00;5057777;28;69116;-73
2023/08/27 05:42:18;;;;;;;;;3.00;1.00;;;;;17.78;100.00;100857.53;5057838;28;45257;-72
2023/08/27 05:44:44;;;;;;;;;1.33;1.00;;;;;17.77;100.00;100861.13;5062040;28;63836;-72
2023/08/27 05:47:09;;;;;;;;;1.00;1.00;;;;;17.77;100.00;100854.91;5069649;28;46556;-74
2023/08/27 05:49:34;;;;;;;;;1.33;1.33;;;;;17.74;100.00;100874.56;5057000;28;64584;-72
2023/08/27 05:52:00;;;;;;;;;2.00;1.00;;;;;17.76;100.00;100870.06;5068369;28;66813;-72
2023/08/27 05:54:25;;;;;;;;;1.67;1.00;;;;;17.72;100.00;100870.09;5061615;28;45436;-72
2023/08/27 05:56:50;;;;;;;;;2.33;1.00;;;;;17.78;100.00;100876.25;5064577;28;62397;-72
2023/08/27 05:59:16;;;;;;;;;1.00;1.00;;;;;17.78;100.00;100868.22;5062165;28;66975;-72
2023/08/27 06:01:42;;;;;;;;;2.00;2.00;;;;;17.79;100.00;100882.50;5040024;28;66201;-72
2023/08/27 06:04:08;;;;;;;;;1.67;1.00;;;;;17.77;100.00;100871.81;5062595;28;45304;-72
2023/08/27 06:06:34;;;;;;;;;1.00;1.00;;;;;17.79;100.00;100874.47;5060226;28;45538;-73
2023/08/27 06:08:59;;;;;;;;;2.67;2.00;;;;;17.82;100.00;100886.88;5061436;28;46521;-72
2023/08/27 06:11:24;;;;;;;;;1.33;1.33;;;;;17.80;100.00;100879.78;5058215;28;69967;-71
2023/08/27 06:13:49;;;;;;;;;1.00;1.00;;;;;17.83;100.00;100875.28;5057397;28;61440;-73
2023/08/27 06:16:15;;;;;;;;;3.00;2.00;;;;;17.87;100.00;100874.34;5061083;28;60157;-72
2023/08/27 06:18:40;;;;;;;;;1.00;1.00;;;;;17.91;100.00;100884.06;5063857;28;45717;-72
2023/08/27 06:21:06;;;;;;;;;1.33;1.33;;;;;17.99;100.00;100879.44;5061064;28;45345;-72
2023/08/27 06:23:32;;;;;;;;;2.33;2.00;;;;;18.01;100.00;100883.88;5061147;28;45440;-74
2023/08/27 06:26:04;;;;;;;;;1.00;1.00;;;;;18.05;100.00;100890.00;5063087;28;54673;-72
2023/08/27 06:28:29;;;;;;;;;7.00;3.67;;;;;18.07;100.00;100882.88;5060692;28;50453;-72
2023/08/27 06:30:55;;;;;;;;;1.00;1.00;;;;;18.09;100.00;100886.38;5057093;28;46462;-73
2023/08/27 06:33:20;;;;;;;;;4.00;1.00;;;;;18.11;100.00;100881.00;5060404;28;45508;-72
2023/08/27 06:35:45;;;;;;;;;1.67;1.00;;;;;18.11;100.00;100884.56;5057730;28;45416;-74
2023/08/27 06:38:11;;;;;;;;;1.67;1.67;;;;;18.14;100.00;100884.50;5064657;28;64616;-73
2023/08/27 06:40:36;;;;;;;;;2.00;2.00;;;;;18.15;100.00;100885.38;5060603;28;67067;-71
2023/08/27 06:43:02;;;;;;;;;1.67;1.00;;;;;18.17;100.00;100886.25;5058051;28;49211;-72
2023/08/27 06:45:28;;;;;;;;;2.00;2.00;;;;;18.21;100.00;100879.91;5061523;28;45336;-72
2023/08/27 06:47:54;;;;;;;;;1.00;1.00;;;;;18.25;100.00;100886.97;5057680;28;48884;-74
2023/08/27 06:50:20;;;;;;;;;1.67;1.33;;;;;18.27;100.00;100890.50;5040697;28;45422;-73
2023/08/27 06:52:46;;;;;;;;;3.67;2.00;;;;;18.24;100.00;100891.44;5062790;28;45526;-71
2023/08/27 06:55:12;;;;;;;;;3.00;1.67;;;;;18.27;100.00;100893.19;5056250;28;45776;-71
2023/08/27 06:57:38;;;;;;;;;2.00;2.00;;;;;18.25;100.00;100894.97;5056825;28;45722;-71
2023/08/27 07:00:07;;;;;;;;;0.00;0.00;;;;;18.26;100.00;100899.41;5054565;28;45597;-73
2023/08/27 07:02:32;;;;;;;;;3.00;1.33;;;;;18.25;100.00;100898.53;5038266;28;45509;-72
2023/08/27 07:04:58;;;;;;;;;1.00;1.00;;;;;18.31;100.00;100905.53;5055721;28;45453;-71
2023/08/27 07:07:24;;;;;;;;;1.00;1.00;;;;;18.33;100.00;100901.94;5055700;28;60947;-71
2023/08/27 07:09:49;;;;;;;;;2.33;2.00;;;;;18.38;100.00;100903.66;5038164;28;45572;-70
2023/08/27 07:12:15;;;;;;;;;1.67;1.67;;;;;18.39;100.00;100910.75;5055845;28;45508;-71
2023/08/27 07:14:41;;;;;;;;;2.33;1.00;;;;;18.46;100.00;100907.03;5055603;28;45384;-73
2023/08/27 07:17:07;;;;;;;;;1.00;1.00;;;;;18.54;100.00;100905.09;5037916;28;46774;-71
2023/08/27 07:19:32;;;;;;;;;1.00;1.00;;;;;18.69;100.00;100907.47;5054149;28;45423;-71
2023/08/27 07:21:57;;;;;;;;;1.00;1.00;;;;;18.73;100.00;100910.97;5053306;28;54851;-73
2023/08/27 07:24:23;;;;;;;;;3.67;2.00;;;;;18.83;100.00;100912.53;5037700;28;45630;-71
2023/08/27 07:26:48;;;;;;;;;5.00;2.00;;;;;18.86;100.00;100917.81;5062036;28;53297;-72
2023/08/27 07:29:13;;;;;;;;;1.00;1.00;;;;;18.87;100.00;100911.56;5037720;28;64630;-71
2023/08/27 07:31:39;;;;;;;;;2.00;2.00;;;;;18.86;100.00;100917.81;5056859;28;45463;-71
2023/08/27 07:34:04;;;;;;;;;4.67;1.00;;;;;18.86;100.00;100922.31;5055458;28;61719;-73
2023/08/27 07:36:29;;;;;;;;;1.00;1.00;;;;;18.85;100.00;100918.72;5057860;28;71063;-71
2023/08/27 07:38:57;;;;;;;;;2.67;2.67;;;;;18.81;100.00;100909.03;5054073;28;45460;-71
2023/08/27 07:41:23;;;;;;;;;1.33;1.00;;;;;18.85;100.00;100910.69;5055774;28;45531;-71
2023/08/27 07:43:48;;;;;;;;;2.00;1.00;;;;;18.85;100.00;100916.03;5038407;28;45507;-72
2023/08/27 07:46:13;;;;;;;;;5.00;3.00;;;;;18.87;100.00;100916.03;5113550;22;67782;-73
2023/08/27 07:48:39;;;;;;;;;1.00;1.00;;;;;18.89;100.00;100906.16;4984288;28;45422;-74
2023/08/27 07:51:04;;;;;;;;;0.67;0.33;;;;;18.95;100.00;100900.66;4996413;28;60006;-71
2023/08/27 07:53:29;;;;;;;;;1.00;1.00;;;;;18.96;100.00;100916.72;4995353;28;52827;-74
2023/08/27 07:55:55;;;;;;;;;1.00;1.00;;;;;18.99;100.00;100913.06;4994702;28;45266;-73
2023/08/27 07:58:21;;;;;;;;;1.00;1.00;;;;;19.02;100.00;100918.38;4995713;28;45283;-73
2023/08/27 08:00:46;;;;;;;;;3.33;1.00;;;;;19.09;100.00;100911.94;4995265;28;45834;-72
2023/08/27 08:03:12;;;;;;;;;1.00;1.00;;;;;19.19;100.00;100905.47;4977890;28;45513;-72
2023/08/27 08:05:37;;;;;;;;;1.00;1.00;;;;;19.30;100.00;100908.78;4995602;28;51769;-72
2023/08/27 08:08:03;;;;;;;;;1.00;1.00;;;;;19.37;100.00;100906.81;4994740;28;57658;-72
2023/08/27 08:10:28;;;;;;;;;1.00;1.00;;;;;19.42;100.00;100907.59;4995116;28;45440;-72
2023/08/27 08:12:53;;;;;;;;;3.67;2.00;;;;;19.51;100.00;100906.50;4994920;28;51741;-72
2023/08/27 08:15:19;;;;;;;;;4.00;2.00;;;;;19.54;100.00;100917.13;4995343;28;53462;-74
2023/08/27 08:17:44;;;;;;;;;2.33;1.00;;;;;19.57;100.00;100911.69;4994703;28;45320;-71
2023/08/27 08:20:11;;;;;;;;;1.00;1.00;;;;;19.64;100.00;100910.66;4992606;28;45939;-73
2023/08/27 08:22:37;;;;;;;;;2.00;2.00;;;;;19.72;100.00;100908.69;4992229;28;45984;-72
2023/08/27 08:25:02;;;;;;;;;1.67;1.00;;;;;19.78;100.00;100908.50;4993941;28;45539;-72
2023/08/27 08:27:28;;;;;;;;;2.33;1.00;;;;;19.81;100.00;100911.09;4992059;28;45978;-71
2023/08/27 08:29:53;;;;;;;;;2.33;1.00;;;;;19.84;100.00;100911.03;4995512;28;60723;-74
2023/08/27 08:32:19;;;;;;;;;1.67;1.67;;;;;19.86;100.00;100908.31;4981011;28;45880;-75
2023/08/27 08:34:44;;;;;;;;;1.00;1.00;;;;;19.88;100.00;100901.13;4978787;28;47326;-71
2023/08/27 08:37:09;;;;;;;;;3.00;1.00;;;;;19.84;100.00;100900.31;4994528;28;64567;-71
2023/08/27 08:39:35;;;;;;;;;3.00;1.00;;;;;19.87;100.00;100908.28;4997064;28;50384;-72
2023/08/27 08:42:15;;;;;;;;;2.00;0.33;;;;;19.90;100.00;100904.63;4996697;28;45436;-73
2023/08/27 08:45:05;;;;;;;;;2.00;1.00;;;;;19.92;100.00;100902.81;4979172;28;45637;-71
2023/08/27 08:47:34;;;;;;;;;1.00;1.00;;;;;19.95;100.00;100897.34;4996922;28;45534;-71
2023/08/27 08:50:05;;;;;;;;;3.67;1.00;;;;;20.03;100.00;100890.00;4995408;28;45497;-70
2023/08/27 08:52:42;;;;;;;;;1.67;1.00;;;;;20.13;100.00;100894.19;4989305;28;45505;-70
2023/08/27 08:55:11;;;;;;;;;1.00;1.00;;;;;20.18;100.00;100893.16;4979686;28;45441;-70
2023/08/27 08:57:50;;;;;;;;;1.00;1.00;;;;;20.25;100.00;100892.97;4996767;28;45502;-70
2023/08/27 09:00:16;;;;;;;;;0.33;0.33;;;;;20.30;100.00;100890.16;4978706;28;45616;-73
2023/08/27 09:02:42;;;;;;;;;1.00;1.00;;;;;20.40;100.00;100892.53;4987837;28;45570;-69
2023/08/27 09:05:10;;;;;;;;;1.00;1.00;;;;;20.50;100.00;100889.59;4977187;28;45924;-70
2023/08/27 09:07:38;;;;;;;;;1.00;1.00;;;;;20.55;100.00;100899.28;4980138;28;46655;-70
2023/08/27 09:10:04;;;;;;;;;3.00;1.67;;;;;20.57;100.00;100897.44;4973067;28;46090;-71
2023/08/27 09:12:30;;;;;;;;;2.00;1.00;;;;;20.55;100.00;100893.03;4983944;28;45703;-70
2023/08/27 09:14:55;;;;;;;;;1.33;0.00;;;;;20.58;100.00;100898.31;4963194;28;45475;-71
2023/08/27 09:17:21;;;;;;;;;0.33;0.33;;;;;20.59;100.00;100889.34;4986180;28;45576;-70
2023/08/27 09:19:47;;;;;;;;;3.00;1.00;;;;;20.65;100.00;100900.75;4987105;28;45928;-70
2023/08/27 09:22:14;;;;;;;;;2.00;0.33;;;;;20.79;100.00;100911.09;4967962;28;45546;-71
2023/08/27 09:24:40;;;;;;;;;1.00;1.00;;;;;20.94;100.00;100904.41;4988865;28;45589;-71
2023/08/27 09:27:06;;;;;;;;;0.33;0.33;;;;;21.05;100.00;100904.94;4986754;28;45619;-71
2023/08/27 09:29:33;;;;;;;;;1.00;1.00;;;;;21.16;100.00;100904.59;4988607;28;53771;-71
2023/08/27 09:31:58;;;;;;;;;2.00;0.33;;;;;21.23;100.00;100910.66;4991429;28;45589;-70
2023/08/27 09:34:23;;;;;;;;;1.33;1.33;;;;;21.32;100.00;100911.28;4972966;28;45511;-70
2023/08/27 09:36:49;;;;;;;;;1.67;1.67;;;;;21.47;100.00;100915.28;4989529;28;45603;-70
2023/08/27 09:39:15;;;;;;;;;2.00;1.33;;;;;21.56;100.00;100919.44;4989454;28;45872;-69
2023/08/27 09:41:42;;;;;;;;;1.33;1.33;;;;;21.52;100.00;100923.16;4987762;28;45595;-69
2023/08/27 09:44:08;;;;;;;;;0.33;0.33;;;;;21.50;100.00;100930.41;4987578;28;47720;-69
2023/08/27 09:46:34;;;;;;;;;2.00;1.33;;;;;21.41;100.00;100924.41;4987244;28;45605;-70
2023/08/27 09:49:01;;;;;;;;;1.33;1.33;;;;;21.33;100.00;100926.44;4989238;28;45550;-72
2023/08/27 09:51:28;;;;;;;;;1.33;1.33;;;;;21.32;100.00;100924.72;4989056;28;45928;-73
2023/08/27 09:53:54;;;;;;;;;1.67;0.67;;;;;21.36;100.00;100928.16;4988568;28;45858;-74
2023/08/27 09:56:24;;;;;;;;;0.33;0.33;;;;;21.40;100.00;100924.44;4971825;28;46029;-73
2023/08/27 09:58:51;;;;;;;;;4.67;0.67;;;;;21.58;100.00;100920.31;4970740;28;45565;-72
2023/08/27 10:01:17;;;;;;;;;1.33;0.67;;;;;21.73;100.00;100917.06;4988191;28;45698;-72
2023/08/27 10:03:42;;;;;;;;;1.00;1.00;;;;;21.96;100.00;100922.56;4984642;28;45971;-75
2023/08/27 10:06:08;;;;;;;;;2.33;0.67;;;;;22.16;100.00;100919.22;4986816;28;49908;-71
2023/08/27 10:08:45;;;;;;;;;2.00;1.00;;;;;22.34;100.00;100916.78;4971435;28;45492;-71
2023/08/27 10:11:10;;;;;;;;;0.00;0.00;;;;;22.46;100.00;100919.00;4988819;28;45518;-72
2023/08/27 10:13:37;;;;;;;;;0.00;0.00;;;;;22.62;100.00;100913.94;4989097;28;46252;-71
2023/08/27 10:16:02;;;;;;;;;2.00;0.33;;;;;22.82;100.00;100919.47;4987755;28;45520;-71
2023/08/27 10:18:28;;;;;;;;;0.00;0.00;;;;;22.93;100.00;100917.25;4989747;28;47215;-71
2023/08/27 10:20:54;;;;;;;;;1.00;1.00;;;;;22.79;100.00;100930.31;4971230;28;45501;-71
2023/08/27 10:23:19;;;;;;;;;1.00;1.00;;;;;22.57;100.00;100915.94;4989668;28;45656;-70
2023/08/27 10:25:46;;;;;;;;;2.00;1.00;;;;;22.35;100.00;100922.09;4989263;28;45533;-72
2023/08/27 10:28:12;;;;;;;;;1.00;1.00;;;;;22.23;100.00;100931.50;4972484;28;45851;-70
2023/08/27 10:30:38;;;;;;;;;4.00;1.00;;;;;22.13;100.00;100929.19;4989521;28;45499;-70
2023/08/27 10:33:04;;;;;;;;;2.00;1.00;;;;;22.20;100.00;100926.22;4971756;28;66722;-69
2023/08/27 10:35:34;;;;;;;;;3.00;1.00;;;;;22.36;100.00;100936.44;4978612;28;45576;-68
2023/08/27 10:37:59;;;;;;;;;1.00;1.00;;;;;22.52;100.00;100923.28;4978205;28;45542;-69
2023/08/27 10:40:26;;;;;;;;;3.33;1.00;;;;;22.63;100.00;100918.38;4991975;28;53540;-70
2023/08/27 10:42:51;;;;;;;;;1.00;1.00;;;;;22.82;100.00;100919.47;4988102;28;46325;-69
2023/08/27 10:45:21;;;;;;;;;5.00;3.67;;;;;23.04;100.00;100937.50;4990381;28;46052;-70
2023/08/27 10:48:23;;;;;;;;;1.67;1.67;;;;;23.31;100.00;100935.53;4990849;28;46034;-70
2023/08/27 10:50:58;;;;;;;;;0.00;0.00;;;;;23.53;100.00;100929.19;4911276;28;45716;-71
2023/08/27 10:53:24;;;;;;;;;0.00;0.00;;;;;23.68;100.00;100926.84;4957656;28;47558;-72
2023/08/27 10:55:51;;;;;;;;;0.67;0.67;;;;;23.82;100.00;100920.91;4987051;28;45777;-71
2023/08/27 10:58:20;;;;;;;;;1.33;0.00;;;;;23.95;100.00;100909.50;4984862;28;45646;-71
2023/08/27 11:01:13;;;;;;;;;0.00;0.00;;;;;24.23;100.00;100916.38;4984676;28;45885;-73
2023/08/27 11:04:13;;;;;;;;;4.67;3.33;;;;;24.39;100.00;100913.91;4966512;28;46496;-73
2023/08/27 11:06:49;;;;;;;;;4.33;2.00;;;;;24.34;100.00;100915.91;4984154;28;45477;-74
2023/08/27 11:09:14;;;;;;;;;2.67;2.67;;;;;24.26;100.00;100927.06;4965167;28;45579;-74
2023/08/27 11:11:41;;;;;;;;;4.00;4.00;;;;;24.13;99.50;100909.63;4986888;28;45444;-69
2023/08/27 11:14:10;;;;;;;;;3.67;3.67;;;;;24.00;96.01;100920.97;4967687;28;47578;-71